createdAt,value
2018-12-07T00:01:38.385Z,100.00
2018-12-07T00:04:08.179Z,100.00
2018-12-07T00:06:38.143Z,100.00
2018-12-07T00:09:08.528Z,100.00
2018-12-07T00:11:39.376Z,100.00
2018-12-07T00:14:09.231Z,100.00
2018-12-07T00:16:39.110Z,100.00
2018-12-07T00:19:08.936Z,100.00
2018-12-07T00:21:38.709Z,100.00
2018-12-07T00:24:08.541Z,100.00
2018-12-07T00:26:38.517Z,100.00
2018-12-07T00:29:08.381Z,100.00
2018-12-07T00:31:38.256Z,100.00
2018-12-07T00:34:08.053Z,100.00
2018-12-07T00:36:37.939Z,100.00
2018-12-07T00:39:08.756Z,100.00
2018-12-07T00:41:38.544Z,100.00
2018-12-07T00:44:08.331Z,100.00
2018-12-07T00:46:39.128Z,100.00
2018-12-07T00:49:09.025Z,100.00
2018-12-07T00:51:38.837Z,100.00
2018-12-07T00:54:08.584Z,100.00
2018-12-07T00:56:38.501Z,100.00
2018-12-07T00:59:08.372Z,100.00
2018-12-07T01:01:38.292Z,100.00
2018-12-07T01:04:08.114Z,100.00
2018-12-07T01:06:38.040Z,100.00
2018-12-07T01:09:08.883Z,100.00
2018-12-07T01:11:38.792Z,100.00
2018-12-07T01:14:08.749Z,100.00
2018-12-07T01:16:38.625Z,100.00
2018-12-07T01:19:08.517Z,100.00
2018-12-07T01:21:38.349Z,100.00
2018-12-07T01:24:08.268Z,100.00
2018-12-07T01:26:38.148Z,100.00
2018-12-07T01:29:07.932Z,100.00
2018-12-07T01:31:37.890Z,100.00
2018-12-07T01:34:07.695Z,100.00
2018-12-07T01:36:37.708Z,100.00
2018-12-07T01:39:07.944Z,100.00
2018-12-07T01:41:37.881Z,100.00
2018-12-07T01:44:07.772Z,100.00
2018-12-07T01:46:37.595Z,100.00
2018-12-07T01:49:07.616Z,100.00
2018-12-07T01:51:37.499Z,100.00
2018-12-07T01:54:07.333Z,100.00
2018-12-07T01:56:37.177Z,100.00
2018-12-07T01:59:07.268Z,100.00
2018-12-07T02:01:37.082Z,100.00
2018-12-07T02:04:06.844Z,100.00
2018-12-07T02:06:37.604Z,100.00
2018-12-07T02:09:07.980Z,100.00
2018-12-07T02:11:39.821Z,100.00
2018-12-07T02:14:09.711Z,100.00
2018-12-07T02:16:39.500Z,100.00
2018-12-07T02:19:09.337Z,100.00
2018-12-07T02:21:39.156Z,100.00
2018-12-07T02:24:08.968Z,100.00
2018-12-07T02:26:38.804Z,100.00
2018-12-07T02:29:08.700Z,100.00
2018-12-07T02:31:38.594Z,100.00
2018-12-07T02:34:08.509Z,100.00
2018-12-07T02:36:38.421Z,100.00
2018-12-07T02:39:08.269Z,100.00
2018-12-07T02:41:39.216Z,100.00
2018-12-07T02:44:09.126Z,100.00
2018-12-07T02:46:38.903Z,100.00
2018-12-07T02:49:08.694Z,100.00
2018-12-07T02:51:38.510Z,100.00
2018-12-07T02:54:08.312Z,100.00
2018-12-07T02:56:38.145Z,100.00
2018-12-07T02:59:07.943Z,100.00
2018-12-07T03:01:38.849Z,100.00
2018-12-07T03:04:08.756Z,100.00
2018-12-07T03:06:38.951Z,100.00
2018-12-07T03:09:08.777Z,100.00
2018-12-07T03:11:38.600Z,100.00
2018-12-07T03:14:08.501Z,100.00
2018-12-07T03:16:38.349Z,100.00
2018-12-07T03:19:08.229Z,100.00
2018-12-07T03:21:38.075Z,100.00
2018-12-07T03:24:07.850Z,100.00
2018-12-07T03:26:37.696Z,100.00
2018-12-07T03:29:07.591Z,100.00
2018-12-07T03:31:37.524Z,100.00
2018-12-07T03:34:07.476Z,100.00
2018-12-07T03:36:37.369Z,100.00
2018-12-07T03:39:07.561Z,100.00
2018-12-07T03:41:39.422Z,100.00
2018-12-07T03:44:09.431Z,100.00
2018-12-07T03:46:39.192Z,100.00
2018-12-07T03:49:09.000Z,100.00
2018-12-07T03:51:38.961Z,100.00
2018-12-07T03:54:10.622Z,100.00
2018-12-07T03:56:40.621Z,100.00
2018-12-07T03:59:10.456Z,100.00
2018-12-07T04:01:40.237Z,100.00
2018-12-07T04:04:11.108Z,100.00
2018-12-07T04:06:43.117Z,100.00
2018-12-07T04:09:12.990Z,100.00
2018-12-07T04:11:42.869Z,100.00
2018-12-07T04:14:12.712Z,100.00
2018-12-07T04:16:43.778Z,100.00
2018-12-07T04:19:13.796Z,100.00
2018-12-07T04:21:43.583Z,100.00
2018-12-07T04:24:13.403Z,100.00
2018-12-07T04:26:43.181Z,100.00
2018-12-07T04:29:12.976Z,100.00
2018-12-07T04:31:42.834Z,100.00
2018-12-07T04:34:12.648Z,100.00
2018-12-07T04:36:42.482Z,100.00
2018-12-07T04:39:12.381Z,100.00
2018-12-07T04:41:42.215Z,100.00
2018-12-07T04:44:12.017Z,100.00
2018-12-07T04:46:42.115Z,100.00
2018-12-07T04:49:12.088Z,100.00
2018-12-07T04:51:41.975Z,100.00
2018-12-07T04:54:11.867Z,100.00
2018-12-07T04:56:41.708Z,100.00
2018-12-07T04:59:11.659Z,100.00
2018-12-07T05:01:42.117Z,100.00
2018-12-07T05:04:11.936Z,100.00
2018-12-07T05:06:41.728Z,100.00
2018-12-07T05:09:11.557Z,100.00
2018-12-07T05:11:41.350Z,100.00
2018-12-07T05:14:11.188Z,100.00
2018-12-07T05:16:41.020Z,100.00
2018-12-07T05:19:11.084Z,100.00
2018-12-07T05:21:40.881Z,100.00
2018-12-07T05:24:10.748Z,100.00
2018-12-07T05:26:40.627Z,100.00
2018-12-07T05:29:10.569Z,100.00
2018-12-07T05:31:40.474Z,100.00
2018-12-07T05:34:10.998Z,100.00
2018-12-07T05:36:40.811Z,100.00
2018-12-07T05:39:10.796Z,100.00
2018-12-07T05:41:42.273Z,100.00
2018-12-07T05:44:12.113Z,100.00
2018-12-07T05:46:42.009Z,100.00
2018-12-07T05:49:11.802Z,100.00
2018-12-07T05:51:41.623Z,100.00
2018-12-07T05:54:12.106Z,100.00
2018-12-07T05:56:41.999Z,100.00
2018-12-07T05:59:12.053Z,100.00
2018-12-07T06:01:42.069Z,100.00
2018-12-07T06:04:12.697Z,100.00
2018-12-07T06:06:43.079Z,100.00
2018-12-07T06:09:12.880Z,100.00
2018-12-07T06:11:42.801Z,100.00
2018-12-07T06:14:12.762Z,100.00
2018-12-07T06:16:42.730Z,100.00
2018-12-07T06:19:13.327Z,100.00
2018-12-07T06:21:43.192Z,100.00
2018-12-07T06:24:13.120Z,100.00
2018-12-07T06:26:43.084Z,100.00
2018-12-07T06:29:13.185Z,100.00
2018-12-07T06:31:42.995Z,100.00
2018-12-07T06:34:13.627Z,100.00
2018-12-07T06:36:44.840Z,100.00
2018-12-07T06:39:16.264Z,100.00
2018-12-07T06:41:46.737Z,100.00
2018-12-07T06:44:17.386Z,100.00
2018-12-07T06:46:47.789Z,100.00
2018-12-07T06:49:17.861Z,100.00
2018-12-07T06:51:47.956Z,100.00
2018-12-07T06:54:19.142Z,100.00
2018-12-07T06:56:49.747Z,100.00
2018-12-07T06:59:20.573Z,100.00
2018-12-07T07:01:51.769Z,100.00
2018-12-07T07:04:25.312Z,100.00
2018-12-07T07:06:59.256Z,100.00
2018-12-07T07:09:31.256Z,100.00
2018-12-07T07:12:04.109Z,100.00
2018-12-07T07:14:36.478Z,100.00
2018-12-07T07:17:09.078Z,100.00
2018-12-07T07:19:39.857Z,100.00
2018-12-07T07:22:11.185Z,100.00
2018-12-07T07:24:43.083Z,100.00
2018-12-07T07:27:15.259Z,100.00
2018-12-07T07:29:48.957Z,100.00
2018-12-07T07:32:20.005Z,100.00
2018-12-07T07:34:52.247Z,100.00
2018-12-07T07:37:25.176Z,100.00
2018-12-07T07:39:59.186Z,100.00
2018-12-07T07:42:30.950Z,100.00
2018-12-07T07:45:01.790Z,100.00
2018-12-07T07:47:35.917Z,100.00
2018-12-07T07:50:08.251Z,100.00
2018-12-07T07:52:40.272Z,100.00
2018-12-07T07:55:11.383Z,100.00
2018-12-07T07:57:42.927Z,100.00
2018-12-07T08:00:14.075Z,100.00
2018-12-07T08:02:45.116Z,100.00
2018-12-07T08:05:16.188Z,100.00
2018-12-07T08:07:46.834Z,100.00
2018-12-07T08:10:18.539Z,100.00
2018-12-07T08:12:50.415Z,100.00
2018-12-07T08:15:23.900Z,100.00
2018-12-07T08:17:55.300Z,100.00
2018-12-07T08:20:27.718Z,100.00
2018-12-07T08:23:00.358Z,100.00
2018-12-07T08:25:39.698Z,100.00
2018-12-07T08:28:11.848Z,100.00
2018-12-07T08:30:45.662Z,100.00
2018-12-07T08:33:19.058Z,99.87
2018-12-07T08:35:50.992Z,99.24
2018-12-07T08:38:22.328Z,99.15
2018-12-07T08:40:52.244Z,99.00
2018-12-07T08:43:24.192Z,98.90
2018-12-07T08:45:57.801Z,98.67
2018-12-07T08:48:30.469Z,99.71
2018-12-07T08:51:02.233Z,97.93
2018-12-07T08:53:34.145Z,98.45
2018-12-07T08:56:04.241Z,99.47
2018-12-07T08:58:34.024Z,98.62
2018-12-07T09:01:03.973Z,98.85
2018-12-07T09:03:33.836Z,97.67
2018-12-07T09:06:03.901Z,97.29
2018-12-07T09:08:33.781Z,97.38
2018-12-07T09:11:03.742Z,97.36
2018-12-07T09:13:33.644Z,96.67
2018-12-07T09:16:03.556Z,96.95
2018-12-07T09:18:34.963Z,95.90
2018-12-07T09:21:04.878Z,96.01
2018-12-07T09:23:34.702Z,95.42
2018-12-07T09:26:04.644Z,93.68
2018-12-07T09:28:34.559Z,95.10
2018-12-07T09:31:04.419Z,93.87
2018-12-07T09:33:34.496Z,95.37
2018-12-07T09:36:04.424Z,93.54
2018-12-07T09:38:34.432Z,90.66
2018-12-07T09:41:04.582Z,91.67
2018-12-07T09:43:34.384Z,90.09
2018-12-07T09:46:04.399Z,89.50
2018-12-07T09:48:35.346Z,87.71
2018-12-07T09:51:05.214Z,87.53
2018-12-07T09:53:35.161Z,86.98
2018-12-07T09:56:05.073Z,87.36
2018-12-07T09:58:36.535Z,87.63
2018-12-07T10:01:06.387Z,86.61
2018-12-07T10:03:36.173Z,85.91
2018-12-07T10:06:06.018Z,85.87
2018-12-07T10:08:35.812Z,84.74
2018-12-07T10:11:05.700Z,84.45
2018-12-07T10:13:35.523Z,82.47
2018-12-07T10:16:05.417Z,80.57
2018-12-07T10:18:35.256Z,79.18
2018-12-07T10:21:05.141Z,78.16
2018-12-07T10:23:36.272Z,77.66
2018-12-07T10:26:06.105Z,77.94
2018-12-07T10:28:36.203Z,78.00
2018-12-07T10:31:06.142Z,77.95
2018-12-07T10:33:36.392Z,79.45
2018-12-07T10:36:06.486Z,78.90
2018-12-07T10:38:36.417Z,80.91
2018-12-07T10:41:06.424Z,81.78
2018-12-07T10:43:36.302Z,83.17
2018-12-07T10:46:06.089Z,84.54
2018-12-07T10:48:35.890Z,85.62
2018-12-07T10:51:08.174Z,85.68
2018-12-07T10:53:37.671Z,86.31
2018-12-07T10:56:07.521Z,87.19
2018-12-07T10:58:37.320Z,87.08
2018-12-07T11:01:12.688Z,88.29
2018-12-07T11:03:47.891Z,88.45
2018-12-07T11:06:23.861Z,88.34
2018-12-07T11:08:59.022Z,88.82
2018-12-07T11:11:34.447Z,88.99
2018-12-07T11:14:09.677Z,87.71
2018-12-07T11:16:44.951Z,89.05
2018-12-07T11:19:20.183Z,88.45
2018-12-07T11:21:55.395Z,88.36
2018-12-07T11:24:30.663Z,88.86
2018-12-07T11:27:07.017Z,87.65
2018-12-07T11:29:42.283Z,88.17
2018-12-07T11:32:21.477Z,88.57
2018-12-07T11:34:56.537Z,88.98
2018-12-07T11:37:26.360Z,89.87
2018-12-07T11:39:56.688Z,89.34
2018-12-07T11:42:28.556Z,88.69
2018-12-07T11:44:58.424Z,88.81
2018-12-07T11:47:28.393Z,89.33
2018-12-07T11:49:58.249Z,89.35
2018-12-07T11:52:28.119Z,87.91
2018-12-07T11:54:57.928Z,88.12
2018-12-07T11:57:27.749Z,89.03
2018-12-07T11:59:57.580Z,89.98
2018-12-07T12:02:27.501Z,89.04
2018-12-07T12:04:57.420Z,88.53
2018-12-07T12:07:28.370Z,86.44
2018-12-07T12:09:58.245Z,86.64
2018-12-07T12:12:30.124Z,85.41
2018-12-07T12:15:00.052Z,85.69
2018-12-07T12:17:29.983Z,86.42
2018-12-07T12:19:59.845Z,85.83
2018-12-07T12:22:29.908Z,85.53
2018-12-07T12:24:59.794Z,85.64
2018-12-07T12:27:30.074Z,85.81
2018-12-07T12:30:00.024Z,85.78
2018-12-07T12:32:29.956Z,86.40
2018-12-07T12:34:59.850Z,87.13
2018-12-07T12:37:29.770Z,85.37
2018-12-07T12:39:59.947Z,86.53
2018-12-07T12:42:29.778Z,86.18
2018-12-07T12:44:59.804Z,86.16
2018-12-07T12:47:29.773Z,86.17
2018-12-07T12:49:59.756Z,84.49
2018-12-07T12:52:31.153Z,82.26
2018-12-07T12:55:01.223Z,79.43
2018-12-07T12:57:31.160Z,77.87
2018-12-07T13:00:01.050Z,75.44
2018-12-07T13:02:31.268Z,73.31
2018-12-07T13:05:01.217Z,75.30
2018-12-07T13:07:31.409Z,77.97
2018-12-07T13:10:01.321Z,77.59
2018-12-07T13:12:31.128Z,78.60
2018-12-07T13:15:00.951Z,79.43
2018-12-07T13:17:31.129Z,80.53
2018-12-07T13:20:00.950Z,81.43
2018-12-07T13:22:30.821Z,81.80
2018-12-07T13:25:00.717Z,81.79
2018-12-07T13:27:30.543Z,81.14
2018-12-07T13:30:00.461Z,79.52
2018-12-07T13:32:30.353Z,78.71
2018-12-07T13:35:00.226Z,77.85
2018-12-07T13:37:30.501Z,75.79
2018-12-07T13:40:00.473Z,74.18
2018-12-07T13:42:30.604Z,72.43
2018-12-07T13:45:00.572Z,72.07
2018-12-07T13:47:30.854Z,73.32
2018-12-07T13:50:06.269Z,72.67
2018-12-07T13:52:36.204Z,63.10
2018-12-07T13:55:06.203Z,54.09
2018-12-07T13:57:36.303Z,47.66
2018-12-07T14:00:07.697Z,43.21
2018-12-07T14:02:38.692Z,40.38
2018-12-07T14:05:09.059Z,37.33
2018-12-07T14:07:38.898Z,36.63
2018-12-07T14:10:08.843Z,36.67
2018-12-07T14:12:39.063Z,37.49
2018-12-07T14:15:09.675Z,45.82
2018-12-07T14:17:39.674Z,51.36
2018-12-07T14:20:10.345Z,58.65
2018-12-07T14:22:40.395Z,64.02
2018-12-07T14:25:10.291Z,68.70
2018-12-07T14:27:40.229Z,72.93
2018-12-07T14:30:12.043Z,76.33
2018-12-07T14:32:42.102Z,77.56
2018-12-07T14:35:12.245Z,78.55
2018-12-07T14:37:42.271Z,80.15
2018-12-07T14:40:13.698Z,79.30
2018-12-07T14:42:43.927Z,67.08
2018-12-07T14:45:13.885Z,66.41
2018-12-07T14:47:44.880Z,67.62
2018-12-07T14:50:15.119Z,69.93
2018-12-07T14:52:45.202Z,73.12
2018-12-07T14:55:15.587Z,75.96
2018-12-07T14:57:45.739Z,75.30
2018-12-07T15:00:16.210Z,76.93
2018-12-07T15:02:46.254Z,77.62
2018-12-07T15:05:16.462Z,78.96
2018-12-07T15:07:46.703Z,81.39
2018-12-07T15:10:16.745Z,84.08
2018-12-07T15:12:46.701Z,85.16
2018-12-07T15:15:17.608Z,87.37
2018-12-07T15:17:47.807Z,88.70
2018-12-07T15:20:17.810Z,90.09
2018-12-07T15:22:48.840Z,90.87
2018-12-07T15:25:18.961Z,92.41
2018-12-07T15:27:49.010Z,94.92
2018-12-07T15:30:22.327Z,96.48
2018-12-07T15:32:53.669Z,98.63
2018-12-07T15:35:23.784Z,99.73
2018-12-07T15:37:53.828Z,100.00
2018-12-07T15:40:23.820Z,100.00
2018-12-07T15:42:53.894Z,100.00
2018-12-07T15:45:23.763Z,100.00
2018-12-07T15:47:53.969Z,100.00
2018-12-07T15:50:25.238Z,100.00
2018-12-07T15:52:55.574Z,100.00
2018-12-07T15:55:25.614Z,100.00
2018-12-07T15:57:57.052Z,100.00
2018-12-07T16:00:27.191Z,100.00
2018-12-07T16:02:57.423Z,100.00
2018-12-07T16:05:28.851Z,100.00
2018-12-07T16:07:58.829Z,100.00
2018-12-07T16:10:28.911Z,100.00
2018-12-07T16:12:59.026Z,99.54
2018-12-07T16:15:29.096Z,99.75
2018-12-07T16:17:59.157Z,100.00
2018-12-07T16:20:31.026Z,100.00
2018-12-07T16:23:00.989Z,98.72
2018-12-07T16:25:31.139Z,99.24
2018-12-07T16:28:01.243Z,98.46
2018-12-07T16:30:31.565Z,99.56
2018-12-07T16:33:01.569Z,99.22
2018-12-07T16:35:31.653Z,100.00
2018-12-07T16:38:02.031Z,97.40
2018-12-07T16:40:32.230Z,98.38
2018-12-07T16:43:02.402Z,99.03
2018-12-07T16:45:32.675Z,99.71
2018-12-07T16:48:03.377Z,99.36
2018-12-07T16:50:35.745Z,100.00
2018-12-07T16:53:06.003Z,98.39
2018-12-07T16:55:36.363Z,97.02
2018-12-07T16:58:06.532Z,96.32
2018-12-07T17:00:36.475Z,93.78
2018-12-07T17:03:06.517Z,90.88
2018-12-07T17:05:38.324Z,90.73
2018-12-07T17:08:08.441Z,90.87
2018-12-07T17:10:38.814Z,92.72
2018-12-07T17:13:08.653Z,95.73
2018-12-07T17:15:40.338Z,99.05
2018-12-07T17:18:10.313Z,100.00
2018-12-07T17:20:40.240Z,100.00
2018-12-07T17:23:11.019Z,100.00
2018-12-07T17:25:41.387Z,100.00
2018-12-07T17:28:12.057Z,100.00
2018-12-07T17:30:42.444Z,100.00
2018-12-07T17:33:13.090Z,100.00
2018-12-07T17:35:43.358Z,100.00
2018-12-07T17:38:13.473Z,100.00
2018-12-07T17:40:43.640Z,100.00
2018-12-07T17:43:14.546Z,100.00
2018-12-07T17:45:44.993Z,100.00
2018-12-07T17:48:16.484Z,100.00
2018-12-07T17:50:47.382Z,100.00
2018-12-07T17:53:17.597Z,100.00
2018-12-07T17:55:47.928Z,100.00
2018-12-07T17:58:18.130Z,100.00
2018-12-07T18:00:48.195Z,100.00
2018-12-07T18:03:18.200Z,100.00
2018-12-07T18:05:48.701Z,100.00
2018-12-07T18:08:19.370Z,98.07
2018-12-07T18:10:50.518Z,98.80
2018-12-07T18:13:21.084Z,100.00
2018-12-07T18:15:51.476Z,100.00
2018-12-07T18:18:22.059Z,100.00
2018-12-07T18:20:52.654Z,100.00
2018-12-07T18:23:23.211Z,100.00
2018-12-07T18:25:57.328Z,100.00
2018-12-07T18:28:27.573Z,100.00
2018-12-07T18:33:35.042Z,98.74
2018-12-07T18:36:05.147Z,96.04
2018-12-07T18:38:35.572Z,96.60
2018-12-07T18:41:05.881Z,95.67
2018-12-07T18:43:36.092Z,91.49
2018-12-07T18:46:06.364Z,92.21
2018-12-07T18:48:36.800Z,90.13
2018-12-07T18:51:07.075Z,89.17
2018-12-07T18:53:37.799Z,90.38
2018-12-07T18:56:08.067Z,94.78
2018-12-07T18:58:38.492Z,93.39
2018-12-07T19:01:08.837Z,96.84
2018-12-07T19:03:39.083Z,95.47
2018-12-07T19:06:09.820Z,94.23
2018-12-07T19:08:40.681Z,93.21
2018-12-07T19:11:10.905Z,92.66
2018-12-07T19:13:41.793Z,88.94
2018-12-07T19:16:12.589Z,89.76
2018-12-07T19:18:43.016Z,92.35
2018-12-07T19:21:13.204Z,97.68
2018-12-07T19:23:43.581Z,100.00
2018-12-07T19:26:14.045Z,100.00
2018-12-07T19:28:45.125Z,100.00
2018-12-07T19:31:15.487Z,100.00
2018-12-07T19:33:45.752Z,100.00
2018-12-07T19:36:15.932Z,100.00
2018-12-07T19:38:45.945Z,100.00
2018-12-07T19:41:16.111Z,100.00
2018-12-07T19:43:46.654Z,100.00
2018-12-07T19:46:16.818Z,100.00
2018-12-07T19:48:47.021Z,100.00
2018-12-07T19:51:17.442Z,100.00
2018-12-07T19:53:47.696Z,100.00
2018-12-07T19:56:17.951Z,100.00
2018-12-07T19:58:48.046Z,100.00
2018-12-07T20:01:17.912Z,100.00
2018-12-07T20:03:48.063Z,100.00
2018-12-07T20:06:18.641Z,100.00
2018-12-07T20:08:48.736Z,100.00
2018-12-07T20:11:19.737Z,100.00
2018-12-07T20:13:50.532Z,100.00
2018-12-07T20:16:23.769Z,100.00
2018-12-07T20:18:54.486Z,100.00
2018-12-07T20:21:25.066Z,100.00
2018-12-07T20:23:55.357Z,100.00
2018-12-07T20:26:25.943Z,100.00
2018-12-07T20:28:56.367Z,100.00
2018-12-07T20:31:26.721Z,100.00
2018-12-07T20:33:58.374Z,100.00
2018-12-07T20:36:32.492Z,100.00
2018-12-07T20:39:07.092Z,100.00
2018-12-07T20:41:37.126Z,100.00
2018-12-07T20:44:07.283Z,100.00
2018-12-07T20:46:37.478Z,100.00
2018-12-07T20:49:07.599Z,100.00
2018-12-07T20:51:38.028Z,100.00
2018-12-07T20:54:08.143Z,100.00
2018-12-07T20:56:38.055Z,100.00
2018-12-07T20:59:08.090Z,100.00
2018-12-07T21:01:38.411Z,100.00
2018-12-07T21:04:35.415Z,100.00
2018-12-07T21:08:26.501Z,100.00
2018-12-07T21:11:15.620Z,100.00
2018-12-07T21:14:50.749Z,100.00
2018-12-07T21:17:28.271Z,100.00
2018-12-07T21:20:29.437Z,100.00
2018-12-07T21:22:59.549Z,100.00
2018-12-07T21:25:29.560Z,100.00
2018-12-07T21:27:59.849Z,100.00
2018-12-07T21:30:50.266Z,100.00
2018-12-07T21:34:29.493Z,100.00
2018-12-07T21:37:05.082Z,100.00
2018-12-07T21:39:41.936Z,100.00
2018-12-07T21:42:11.851Z,100.00
2018-12-07T21:44:41.946Z,100.00
2018-12-07T21:47:11.997Z,100.00
2018-12-07T21:49:53.395Z,100.00
2018-12-07T21:52:29.483Z,100.00
2018-12-07T21:54:59.990Z,100.00
2018-12-07T21:57:30.560Z,100.00
2018-12-07T22:00:00.857Z,100.00
2018-12-07T22:02:31.475Z,100.00
2018-12-07T22:05:01.665Z,100.00
2018-12-07T22:07:31.915Z,100.00
2018-12-07T22:10:02.263Z,100.00
2018-12-07T22:12:32.665Z,100.00
2018-12-07T22:15:02.824Z,100.00
2018-12-07T22:17:32.982Z,100.00
2018-12-07T22:20:05.202Z,100.00
2018-12-07T22:22:35.257Z,100.00
2018-12-07T22:25:05.717Z,100.00
2018-12-07T22:27:35.823Z,100.00
2018-12-07T22:30:06.378Z,100.00
2018-12-07T22:32:36.667Z,100.00
2018-12-07T22:35:06.998Z,100.00
2018-12-07T22:37:37.192Z,100.00
2018-12-07T22:40:07.814Z,100.00
2018-12-07T22:42:37.791Z,100.00
2018-12-07T22:45:08.242Z,100.00
2018-12-07T22:47:38.283Z,100.00
2018-12-07T22:50:08.445Z,100.00
2018-12-07T22:52:39.308Z,100.00
2018-12-07T22:55:09.254Z,100.00
2018-12-07T22:57:39.351Z,100.00
2018-12-07T23:00:13.285Z,100.00
2018-12-07T23:02:43.314Z,100.00
2018-12-07T23:05:13.142Z,100.00
2018-12-07T23:07:43.233Z,100.00
2018-12-07T23:10:13.626Z,100.00
2018-12-07T23:12:43.481Z,100.00
2018-12-07T23:15:13.401Z,100.00
2018-12-07T23:17:43.180Z,100.00
2018-12-07T23:20:13.137Z,100.00
2018-12-07T23:22:43.005Z,100.00
2018-12-07T23:25:13.021Z,100.00
2018-12-07T23:27:43.017Z,100.00
2018-12-07T23:30:12.889Z,100.00
2018-12-07T23:32:42.793Z,100.00
2018-12-07T23:35:12.715Z,100.00
2018-12-07T23:37:42.525Z,100.00
2018-12-07T23:40:13.358Z,100.00
2018-12-07T23:42:43.213Z,100.00
2018-12-07T23:45:13.246Z,100.00
2018-12-07T23:47:43.097Z,100.00
2018-12-07T23:50:12.942Z,100.00
2018-12-07T23:52:42.836Z,100.00
2018-12-07T23:55:12.667Z,100.00
2018-12-07T23:57:42.569Z,100.00
